createdAt,value
2022-08-11T00:00:59.519Z,55.90
2022-08-11T00:03:43.417Z,55.79
2022-08-11T00:06:14.048Z,56.57
2022-08-11T00:08:42.939Z,56.93
2022-08-11T00:11:11.915Z,56.39
2022-08-11T00:13:46.084Z,56.98
2022-08-11T00:16:17.610Z,56.83
2022-08-11T00:18:50.159Z,56.73
2022-08-11T00:21:18.986Z,57.90
2022-08-11T00:24:05.958Z,57.54
2022-08-11T00:26:33.887Z,58.10
2022-08-11T00:29:10.015Z,57.95
2022-08-11T00:31:37.826Z,58.23
2022-08-11T00:34:11.337Z,58.11
2022-08-11T00:36:51.513Z,58.58
2022-08-11T00:39:29.051Z,58.07
2022-08-11T00:42:17.207Z,58.42
2022-08-11T00:45:02.806Z,59.20
2022-08-11T00:47:33.224Z,58.32
2022-08-11T00:50:37.991Z,59.88
2022-08-11T00:53:47.465Z,58.97
2022-08-11T00:56:42.141Z,59.38
2022-08-11T00:59:36.091Z,59.20
2022-08-11T01:02:11.112Z,59.30
2022-08-11T01:04:46.598Z,60.01
2022-08-11T01:08:03.468Z,61.14
2022-08-11T01:11:06.187Z,61.19
2022-08-11T01:14:16.549Z,61.17
2022-08-11T01:16:58.248Z,61.84
2022-08-11T01:19:26.459Z,61.12
2022-08-11T01:22:17.769Z,62.42
2022-08-11T01:25:12.210Z,62.53
2022-08-11T01:28:15.049Z,62.29
2022-08-11T01:31:03.505Z,62.61
2022-08-11T01:33:59.509Z,62.83
2022-08-11T01:36:41.293Z,62.63
2022-08-11T01:39:44.289Z,62.94
2022-08-11T01:42:35.409Z,62.79
2022-08-11T01:45:17.379Z,63.40
2022-08-11T01:48:02.654Z,63.05
2022-08-11T01:50:41.349Z,63.06
2022-08-11T01:53:17.016Z,63.31
2022-08-11T01:56:19.693Z,63.33
2022-08-11T01:58:54.837Z,63.60
2022-08-11T02:01:30.648Z,64.06
2022-08-11T02:04:24.385Z,63.31
2022-08-11T02:07:04.628Z,63.64
2022-08-11T02:10:38.331Z,63.30
2022-08-11T02:13:35.420Z,63.43
2022-08-11T02:16:41.405Z,63.18
2022-08-11T02:19:35.806Z,63.92
2022-08-11T02:22:39.966Z,63.95
2022-08-11T02:25:12.309Z,64.28
2022-08-11T02:27:53.037Z,63.98
2022-08-11T02:30:25.443Z,64.55
2022-08-11T02:33:25.462Z,64.25
2022-08-11T02:36:08.915Z,64.78
2022-08-11T02:38:48.253Z,64.60
2022-08-11T02:41:55.956Z,64.92
2022-08-11T02:44:38.913Z,64.49
2022-08-11T02:47:32.053Z,64.94
2022-08-11T02:50:12.482Z,64.29
2022-08-11T02:52:54.039Z,64.53
2022-08-11T02:55:48.580Z,64.74
2022-08-11T02:58:35.509Z,64.86
2022-08-11T03:01:20.175Z,65.47
2022-08-11T03:04:06.889Z,65.18
2022-08-11T03:06:50.401Z,65.48
2022-08-11T03:09:35.644Z,65.45
2022-08-11T03:12:24.848Z,65.08
2022-08-11T03:15:22.362Z,65.36
2022-08-11T03:18:07.473Z,66.17
2022-08-11T03:20:45.492Z,65.45
2022-08-11T03:23:19.363Z,65.31
2022-08-11T03:26:33.171Z,65.92
2022-08-11T03:29:18.336Z,65.77
2022-08-11T03:32:22.185Z,66.16
2022-08-11T03:34:50.636Z,65.44
2022-08-11T03:37:52.172Z,65.75
2022-08-11T03:40:38.620Z,65.79
2022-08-11T03:43:11.383Z,66.06
2022-08-11T03:46:10.203Z,66.22
2022-08-11T03:48:53.718Z,65.71
2022-08-11T03:51:51.504Z,65.85
2022-08-11T03:55:03.741Z,66.28
2022-08-11T03:58:03.378Z,66.33
2022-08-11T04:00:45.942Z,66.59
2022-08-11T04:03:40.654Z,66.47
2022-08-11T04:06:28.359Z,66.66
2022-08-11T04:09:46.257Z,66.45
2022-08-11T04:12:59.371Z,66.76
2022-08-11T04:16:12.219Z,66.78
2022-08-11T04:19:08.862Z,66.50
2022-08-11T04:21:35.324Z,66.84
2022-08-11T04:24:35.625Z,66.29
2022-08-11T04:27:24.433Z,66.96
2022-08-11T04:30:14.875Z,66.57
2022-08-11T04:33:10.892Z,67.38
2022-08-11T04:35:47.296Z,66.55
2022-08-11T04:38:25.932Z,67.73
2022-08-11T04:41:20.883Z,67.52
2022-08-11T04:44:24.303Z,68.11
2022-08-11T04:47:03.940Z,67.24
2022-08-11T04:50:20.745Z,67.59
2022-08-11T04:53:33.607Z,67.44
2022-08-11T04:56:27.869Z,67.25
2022-08-11T04:59:50.344Z,67.76
2022-08-11T05:02:55.508Z,67.97
2022-08-11T05:05:56.362Z,67.38
2022-08-11T05:08:41.909Z,67.39
2022-08-11T05:11:44.896Z,68.05
2022-08-11T05:14:29.886Z,67.63
2022-08-11T05:17:41.753Z,67.57
2022-08-11T05:20:31.698Z,67.97
2022-08-11T05:23:23.748Z,68.57
2022-08-11T05:26:47.304Z,68.36
2022-08-11T05:29:21.412Z,67.89
2022-08-11T05:32:17.015Z,68.18
2022-08-11T05:34:55.101Z,68.17
2022-08-11T05:37:32.914Z,68.51
2022-08-11T05:40:28.872Z,67.60
2022-08-11T05:43:18.227Z,68.88
2022-08-11T05:46:07.039Z,68.18
2022-08-11T05:48:55.575Z,68.35
2022-08-11T05:51:55.442Z,68.09
2022-08-11T05:54:46.216Z,68.35
2022-08-11T05:57:38.610Z,68.12
2022-08-11T06:00:10.535Z,68.29
2022-08-11T06:02:46.564Z,68.05
2022-08-11T06:05:14.271Z,67.86
2022-08-11T06:07:49.025Z,67.59
2022-08-11T06:10:28.900Z,66.58
2022-08-11T06:12:57.293Z,66.22
2022-08-11T06:15:26.202Z,66.03
2022-08-11T06:17:55.063Z,65.33
2022-08-11T06:20:24.155Z,65.62
2022-08-11T06:23:03.791Z,65.26
2022-08-11T06:25:32.906Z,65.33
2022-08-11T06:28:00.505Z,64.70
2022-08-11T06:30:42.944Z,64.42
2022-08-11T06:33:31.488Z,63.64
2022-08-11T06:36:11.482Z,63.02
2022-08-11T06:38:56.704Z,62.57
2022-08-11T06:41:31.883Z,62.40
2022-08-11T06:44:07.599Z,61.52
2022-08-11T06:46:38.952Z,61.21
2022-08-11T06:49:27.865Z,60.78
2022-08-11T06:52:00.747Z,60.04
2022-08-11T06:54:41.504Z,59.25
2022-08-11T06:57:32.079Z,59.35
2022-08-11T07:00:19.318Z,59.22
2022-08-11T07:02:54.591Z,58.49
2022-08-11T07:05:27.666Z,58.23
2022-08-11T07:08:34.022Z,57.86
2022-08-11T07:11:39.725Z,57.75
2022-08-11T07:14:25.891Z,57.68
2022-08-11T07:16:54.203Z,57.26
2022-08-11T07:19:44.535Z,57.33
2022-08-11T07:22:30.957Z,56.73
2022-08-11T07:25:21.676Z,57.21
2022-08-11T07:28:11.924Z,56.06
2022-08-11T07:30:41.645Z,55.73
2022-08-11T07:33:10.519Z,55.86
2022-08-11T07:35:51.637Z,55.48
2022-08-11T07:38:43.229Z,54.65
2022-08-11T07:41:17.150Z,54.65
2022-08-11T07:43:49.910Z,54.71
2022-08-11T07:46:36.112Z,54.47
2022-08-11T07:49:22.931Z,54.01
2022-08-11T07:52:08.917Z,53.32
2022-08-11T07:54:37.851Z,53.08
2022-08-11T07:58:14.188Z,52.89
2022-08-11T08:00:32.551Z,52.10
2022-08-11T08:03:19.208Z,51.89
2022-08-11T08:06:15.305Z,51.96
2022-08-11T08:09:13.649Z,51.87
2022-08-11T08:11:59.331Z,51.32
2022-08-11T08:14:45.015Z,50.54
2022-08-11T08:17:30.415Z,50.20
2022-08-11T08:19:57.476Z,49.97
2022-08-11T08:22:38.107Z,49.82
2022-08-11T08:25:07.546Z,48.98
2022-08-11T08:27:38.641Z,48.92
2022-08-11T08:30:25.973Z,48.53
2022-08-11T08:32:53.614Z,48.12
2022-08-11T08:35:21.762Z,47.97
2022-08-11T08:37:51.922Z,47.44
2022-08-11T08:40:18.967Z,46.67
2022-08-11T08:42:56.637Z,46.11
2022-08-11T08:45:24.775Z,46.61
2022-08-11T08:47:53.357Z,45.45
2022-08-11T08:50:27.888Z,45.84
2022-08-11T08:53:06.326Z,45.26
2022-08-11T08:55:33.831Z,45.06
2022-08-11T08:58:01.548Z,44.54
2022-08-11T09:00:41.396Z,44.38
2022-08-11T09:03:36.405Z,43.77
2022-08-11T09:05:56.459Z,43.59
2022-08-11T09:08:24.167Z,42.67
2022-08-11T09:11:14.094Z,42.12
2022-08-11T09:13:44.486Z,40.82
2022-08-11T09:16:12.092Z,40.12
2022-08-11T09:18:40.184Z,39.14
2022-08-11T09:21:07.423Z,38.58
2022-08-11T09:24:13.099Z,37.93
2022-08-11T09:26:59.063Z,38.02
2022-08-11T09:29:30.855Z,37.04
2022-08-11T09:31:58.435Z,36.71
2022-08-11T09:34:27.397Z,35.96
2022-08-11T09:37:13.739Z,35.98
2022-08-11T09:40:18.863Z,35.50
2022-08-11T09:43:05.080Z,35.43
2022-08-11T09:45:40.192Z,34.20
2022-08-11T09:48:07.730Z,34.14
2022-08-11T09:50:35.236Z,34.80
2022-08-11T09:53:35.279Z,33.75
2022-08-11T09:55:53.729Z,32.63
2022-08-11T09:58:42.094Z,32.58
2022-08-11T10:01:27.326Z,32.14
2022-08-11T10:04:00.045Z,31.47
2022-08-11T10:06:48.235Z,30.99
2022-08-11T10:09:24.962Z,30.76
2022-08-11T10:11:58.578Z,29.87
2022-08-11T10:14:46.591Z,29.91
2022-08-11T10:17:16.073Z,29.07
2022-08-11T10:19:45.371Z,28.63
2022-08-11T10:22:50.319Z,28.39
2022-08-11T10:25:35.870Z,28.20
2022-08-11T10:28:33.117Z,27.61
2022-08-11T10:31:13.764Z,27.16
2022-08-11T10:34:00.807Z,26.93
2022-08-11T10:36:33.531Z,26.51
2022-08-11T10:39:02.350Z,25.86
2022-08-11T10:42:07.277Z,25.53
2022-08-11T10:44:42.173Z,25.66
2022-08-11T10:47:30.552Z,24.71
2022-08-11T10:50:16.918Z,24.53
2022-08-11T10:53:04.810Z,24.69
2022-08-11T10:55:50.531Z,24.63
2022-08-11T10:58:37.290Z,24.16
2022-08-11T11:01:05.368Z,24.81
2022-08-11T11:03:36.306Z,24.00
2022-08-11T11:06:35.854Z,22.26
2022-08-11T11:09:07.134Z,22.54
2022-08-11T11:11:56.667Z,22.06
2022-08-11T11:14:58.266Z,22.00
2022-08-11T11:17:48.080Z,21.60
2022-08-11T11:20:36.918Z,20.93
2022-08-11T11:23:20.472Z,20.41
2022-08-11T11:26:06.478Z,20.55
2022-08-11T11:28:58.031Z,20.33
2022-08-11T11:31:36.201Z,20.05
2022-08-11T11:34:35.510Z,18.92
2022-08-11T11:37:03.813Z,19.66
2022-08-11T11:39:32.683Z,19.25
2022-08-11T11:42:10.223Z,19.76
2022-08-11T11:44:43.203Z,19.60
2022-08-11T11:47:12.235Z,18.96
2022-08-11T11:49:43.777Z,18.54
2022-08-11T11:52:17.203Z,18.54
2022-08-11T11:54:44.330Z,18.37
2022-08-11T11:57:32.889Z,17.92
2022-08-11T12:00:18.235Z,18.32
2022-08-11T12:02:44.859Z,18.76
2022-08-11T12:05:11.626Z,18.20
2022-08-11T12:08:10.385Z,17.92
2022-08-11T12:11:26.009Z,18.00
2022-08-11T12:13:54.995Z,17.80
2022-08-11T12:16:34.668Z,18.07
2022-08-11T12:19:12.906Z,18.26
2022-08-11T12:22:03.438Z,17.86
2022-08-11T12:24:49.742Z,18.25
2022-08-11T12:27:24.178Z,18.15
2022-08-11T12:29:56.224Z,18.13
2022-08-11T12:32:29.251Z,17.75
2022-08-11T12:34:57.810Z,17.56
2022-08-11T12:37:32.036Z,18.15
2022-08-11T12:40:43.373Z,17.24
2022-08-11T12:43:37.839Z,17.87
2022-08-11T12:46:09.079Z,18.16
2022-08-11T12:49:02.132Z,17.96
2022-08-11T12:52:11.080Z,18.44
2022-08-11T12:54:52.251Z,18.63
2022-08-11T12:58:00.401Z,18.73
2022-08-11T13:00:46.482Z,18.57
2022-08-11T13:03:32.520Z,17.81
2022-08-11T13:06:02.916Z,18.68
2022-08-11T13:08:36.683Z,18.43
2022-08-11T13:11:23.426Z,18.12
2022-08-11T13:13:57.191Z,17.59
2022-08-11T13:16:57.505Z,17.96
2022-08-11T13:19:25.164Z,18.61
2022-08-11T13:21:53.029Z,18.52
2022-08-11T13:24:21.528Z,18.12
2022-08-11T13:26:50.858Z,18.26
2022-08-11T13:29:23.322Z,18.31
2022-08-11T13:31:51.661Z,18.28
2022-08-11T13:34:19.981Z,18.19
2022-08-11T13:36:49.290Z,18.00
2022-08-11T13:39:16.832Z,17.45
2022-08-11T13:41:45.209Z,17.42
2022-08-11T13:44:24.746Z,17.19
2022-08-11T13:46:54.123Z,16.63
2022-08-11T13:49:22.020Z,16.61
2022-08-11T13:51:49.543Z,16.93
2022-08-11T13:54:22.359Z,17.41
2022-08-11T13:56:52.833Z,17.58
2022-08-11T13:59:23.035Z,17.37
2022-08-11T14:02:19.352Z,17.13
2022-08-11T14:04:53.131Z,17.24
2022-08-11T14:07:24.674Z,17.07
2022-08-11T14:09:57.581Z,16.82
2022-08-11T14:12:46.463Z,16.81
2022-08-11T14:15:31.065Z,16.67
2022-08-11T14:18:13.730Z,16.19
2022-08-11T14:21:01.260Z,17.06
2022-08-11T14:23:32.729Z,16.92
2022-08-11T14:26:19.015Z,17.12
2022-08-11T14:28:47.058Z,16.75
2022-08-11T14:31:17.559Z,16.30
2022-08-11T14:34:01.040Z,16.05
2022-08-11T14:36:38.346Z,16.32
2022-08-11T14:39:14.063Z,16.11
2022-08-11T14:42:11.562Z,16.25
2022-08-11T14:45:01.426Z,16.48
2022-08-11T14:47:34.737Z,16.46
2022-08-11T14:50:10.733Z,16.41
2022-08-11T14:52:43.526Z,16.20
2022-08-11T14:55:30.549Z,16.37
2022-08-11T14:57:58.132Z,16.59
2022-08-11T15:00:26.124Z,16.61
2022-08-11T15:03:12.989Z,16.84
2022-08-11T15:05:41.219Z,16.78
2022-08-11T15:08:09.153Z,16.66
2022-08-11T15:10:37.031Z,16.73
2022-08-11T15:13:04.183Z,16.88
2022-08-11T15:15:51.606Z,16.53
2022-08-11T15:18:20.551Z,16.49
2022-08-11T15:21:06.309Z,16.32
2022-08-11T15:23:51.256Z,16.22
2022-08-11T15:26:57.819Z,16.26
2022-08-11T15:29:47.664Z,16.35
2022-08-11T15:32:21.723Z,16.62
2022-08-11T15:35:16.472Z,16.40
2022-08-11T15:37:49.762Z,16.22
2022-08-11T15:40:43.467Z,16.20
2022-08-11T15:43:34.827Z,16.37
2022-08-11T15:46:08.927Z,16.26
2022-08-11T15:48:43.537Z,16.21
2022-08-11T15:51:25.160Z,16.34
2022-08-11T15:53:56.181Z,16.53
2022-08-11T15:56:25.998Z,16.33
2022-08-11T15:59:41.550Z,16.48
2022-08-11T16:02:31.707Z,16.36
2022-08-11T16:05:02.145Z,16.04
2022-08-11T16:07:40.393Z,16.47
2022-08-11T16:10:10.808Z,16.43
2022-08-11T16:13:05.141Z,16.63
2022-08-11T16:15:52.218Z,16.26
2022-08-11T16:18:21.103Z,16.69
2022-08-11T16:20:51.800Z,16.17
2022-08-11T16:23:19.635Z,16.26
2022-08-11T16:27:01.332Z,16.13
2022-08-11T16:28:34.989Z,16.31
2022-08-11T16:31:02.553Z,16.60
2022-08-11T16:33:49.441Z,16.88
2022-08-11T16:36:38.898Z,16.93
2022-08-11T16:39:10.287Z,16.98
2022-08-11T16:41:59.109Z,17.13
2022-08-11T16:44:46.657Z,17.30
2022-08-11T16:47:16.318Z,17.43
2022-08-11T16:49:52.763Z,17.86
2022-08-11T16:52:21.055Z,18.36
2022-08-11T16:54:47.920Z,18.31
2022-08-11T16:57:44.859Z,18.21
2022-08-11T17:00:15.323Z,18.85
2022-08-11T17:03:08.209Z,19.02
2022-08-11T17:05:55.347Z,18.97
2022-08-11T17:08:56.814Z,19.44
2022-08-11T17:11:45.850Z,19.83
2022-08-11T17:14:16.360Z,19.42
2022-08-11T17:16:45.702Z,19.93
2022-08-11T17:19:17.139Z,20.03
2022-08-11T17:22:05.813Z,20.37
2022-08-11T17:24:38.984Z,20.38
2022-08-11T17:27:07.639Z,20.53
2022-08-11T17:29:54.984Z,21.13
2022-08-11T17:33:03.853Z,20.91
2022-08-11T17:35:41.171Z,20.99
2022-08-11T17:38:13.014Z,20.63
2022-08-11T17:41:03.005Z,20.56
2022-08-11T17:43:49.538Z,21.48
2022-08-11T17:46:36.053Z,20.98
2022-08-11T17:49:07.703Z,21.69
2022-08-11T17:51:54.377Z,21.54
2022-08-11T17:54:41.932Z,21.48
2022-08-11T17:57:28.730Z,21.89
2022-08-11T17:59:57.710Z,22.01
2022-08-11T18:02:56.275Z,21.97
2022-08-11T18:05:31.915Z,22.07
2022-08-11T18:08:18.994Z,22.52
2022-08-11T18:11:05.271Z,22.34
2022-08-11T18:13:55.346Z,22.75
2022-08-11T18:16:41.174Z,23.03
2022-08-11T18:19:27.339Z,23.21
2022-08-11T18:22:28.331Z,23.51
2022-08-11T18:25:18.435Z,23.22
2022-08-11T18:28:05.987Z,23.24
2022-08-11T18:31:03.939Z,23.38
2022-08-11T18:34:07.105Z,23.49
2022-08-11T18:37:00.738Z,23.48
2022-08-11T18:39:56.583Z,23.79
2022-08-11T18:42:43.425Z,23.63
2022-08-11T18:45:30.986Z,23.78
2022-08-11T18:48:33.955Z,23.13
2022-08-11T18:51:36.127Z,23.60
2022-08-11T18:54:27.446Z,23.81
2022-08-11T18:57:14.735Z,23.96
2022-08-11T19:00:01.783Z,23.78
2022-08-11T19:02:50.155Z,24.26
2022-08-11T19:06:32.060Z,24.02
2022-08-11T19:08:53.765Z,24.17
2022-08-11T19:11:42.712Z,24.61
2022-08-11T19:14:31.046Z,24.35
2022-08-11T19:17:43.564Z,25.19
2022-08-11T19:20:29.167Z,25.52
2022-08-11T19:23:15.418Z,25.64
2022-08-11T19:26:03.505Z,25.67
2022-08-11T19:28:49.691Z,26.21
2022-08-11T19:31:35.406Z,25.94
2022-08-11T19:34:21.740Z,25.90
2022-08-11T19:37:07.538Z,26.91
2022-08-11T19:39:54.198Z,26.25
2022-08-11T19:42:41.107Z,27.11
2022-08-11T19:45:26.831Z,26.94
2022-08-11T19:48:31.319Z,27.72
2022-08-11T19:51:18.775Z,27.70
2022-08-11T19:54:06.384Z,28.07
2022-08-11T19:56:52.467Z,27.76
2022-08-11T19:59:39.019Z,28.40
2022-08-11T20:02:24.721Z,28.64
2022-08-11T20:05:10.476Z,28.74
2022-08-11T20:07:56.415Z,28.83
2022-08-11T20:10:45.595Z,29.43
2022-08-11T20:13:32.715Z,29.50
2022-08-11T20:16:19.071Z,29.44
2022-08-11T20:19:05.390Z,29.77
2022-08-11T20:21:51.739Z,29.98
2022-08-11T20:24:37.598Z,29.80
2022-08-11T20:27:25.727Z,30.04
2022-08-11T20:30:12.363Z,30.34
2022-08-11T20:32:59.236Z,30.22
2022-08-11T20:35:45.017Z,30.61
2022-08-11T20:38:32.102Z,30.69
2022-08-11T20:41:18.618Z,31.22
2022-08-11T20:44:08.189Z,31.53
2022-08-11T20:46:57.288Z,31.83
2022-08-11T20:49:52.588Z,32.23
2022-08-11T20:52:47.252Z,32.35
2022-08-11T20:55:46.316Z,32.82
2022-08-11T21:01:45.323Z,33.11
2022-08-11T21:04:30.975Z,32.98
2022-08-11T21:07:28.585Z,33.28
2022-08-11T21:10:22.937Z,33.21
2022-08-11T21:13:27.112Z,33.57
2022-08-11T21:16:25.955Z,33.71
2022-08-11T21:20:01.818Z,34.08
2022-08-11T21:22:46.208Z,34.18
2022-08-11T21:25:47.617Z,34.30
2022-08-11T21:28:36.896Z,34.38
2022-08-11T21:31:25.309Z,34.58
2022-08-11T21:34:11.878Z,35.42
2022-08-11T21:36:59.458Z,35.63
2022-08-11T21:39:45.777Z,36.21
2022-08-11T21:42:31.976Z,35.82
2022-08-11T21:45:18.940Z,36.56
2022-08-11T21:48:05.646Z,36.89
2022-08-11T21:50:50.773Z,37.13
2022-08-11T21:53:36.336Z,37.11
2022-08-11T21:56:22.463Z,38.07
2022-08-11T21:59:13.227Z,38.43
2022-08-11T22:01:58.400Z,38.45
2022-08-11T22:04:44.019Z,39.54
2022-08-11T22:07:30.216Z,39.70
2022-08-11T22:10:36.927Z,39.63
2022-08-11T22:13:23.396Z,39.91
2022-08-11T22:16:08.602Z,40.38
2022-08-11T22:18:54.993Z,40.85
2022-08-11T22:21:56.289Z,41.41
2022-08-11T22:24:48.386Z,40.94
2022-08-11T22:27:33.227Z,41.13
2022-08-11T22:30:18.377Z,41.55
2022-08-11T22:33:03.730Z,41.85
2022-08-11T22:35:50.205Z,41.52
2022-08-11T22:38:36.870Z,41.52
2022-08-11T22:41:22.562Z,41.96
2022-08-11T22:44:07.734Z,42.43
2022-08-11T22:46:54.103Z,42.94
2022-08-11T22:49:57.672Z,42.59
2022-08-11T22:52:46.773Z,43.17
2022-08-11T22:55:33.114Z,43.26
2022-08-11T22:58:20.613Z,43.46
2022-08-11T23:01:06.831Z,43.64
2022-08-11T23:03:52.517Z,44.51
2022-08-11T23:06:38.737Z,44.75
2022-08-11T23:09:25.871Z,45.22
2022-08-11T23:12:11.777Z,45.44
2022-08-11T23:14:58.817Z,45.68
2022-08-11T23:17:45.270Z,46.36
2022-08-11T23:20:44.245Z,46.85
2022-08-11T23:23:40.667Z,46.94
2022-08-11T23:26:25.843Z,47.16
2022-08-11T23:29:14.378Z,47.84
2022-08-11T23:32:00.031Z,47.58
2022-08-11T23:35:04.343Z,48.15
2022-08-11T23:38:01.840Z,47.57
2022-08-11T23:40:47.047Z,48.49
2022-08-11T23:43:39.595Z,48.60
2022-08-11T23:46:25.292Z,48.54
2022-08-11T23:49:15.283Z,48.91
2022-08-11T23:52:01.368Z,49.33
2022-08-11T23:54:47.455Z,49.13
2022-08-11T23:57:32.338Z,48.91
